Time;durP1;ratioP1;P1;durP2;ratioP2;P2;SDS_P1;SDS_P2;PMS_P1;PMS_P2;Temp;Humidity;BMP_temperature;BMP_pressure;BME280_temperature;BME280_humidity;BME280_pressure;Samples;Min_cycle;Max_cycle;Signal;HPM_P1;HPM_P2
2022/09/20 00:01:21;;;;;;;6.10;3.50;;;;;;;;;;4886978;29;20204;-43
2022/09/20 00:03:48;;;;;;;6.33;3.80;;;;;;;;;;4886829;29;20321;-43
2022/09/20 00:06:16;;;;;;;7.43;3.57;;;;;;;;;;4885678;29;20271;-43
2022/09/20 00:08:42;;;;;;;6.30;3.30;;;;;;;;;;4885430;29;20180;-43
2022/09/20 00:11:10;;;;;;;5.27;3.40;;;;;;;;;;4885633;29;20296;-42
2022/09/20 00:13:37;;;;;;;4.80;3.33;;;;;;;;;;4887859;29;20184;-43
2022/09/20 00:16:07;;;;;;;6.50;3.40;;;;;;;;;;4890908;29;20305;-43
2022/09/20 00:18:33;;;;;;;7.93;3.90;;;;;;;;;;4890264;29;20367;-43
2022/09/20 00:20:59;;;;;;;7.47;3.53;;;;;;;;;;4886361;29;20196;-43
2022/09/20 00:23:25;;;;;;;6.80;3.73;;;;;;;;;;4886524;29;20187;-43
2022/09/20 00:25:59;;;;;;;4.73;3.37;;;;;;;;;;4891411;29;20286;-43
2022/09/20 00:28:26;;;;;;;5.50;3.60;;;;;;;;;;4888618;29;21003;-43
2022/09/20 00:30:52;;;;;;;7.50;4.30;;;;;;;;;;4879071;29;20176;-43
2022/09/20 00:33:18;;;;;;;5.47;3.60;;;;;;;;;;4881870;29;20200;-43
2022/09/20 00:35:45;;;;;;;5.63;4.00;;;;;;;;;;4886091;29;20187;-43
2022/09/20 00:38:12;;;;;;;7.93;4.50;;;;;;;;;;4891155;28;20557;-43
2022/09/20 00:40:39;;;;;;;4.73;3.90;;;;;;;;;;4889189;29;20246;-43
2022/09/20 00:43:05;;;;;;;7.67;4.60;;;;;;;;;;4885846;29;20637;-43
2022/09/20 00:45:31;;;;;;;7.47;4.80;;;;;;;;;;4886245;28;20621;-43
2022/09/20 00:47:58;;;;;;;7.13;4.77;;;;;;;;;;4889784;29;20561;-43
2022/09/20 00:50:24;;;;;;;5.37;4.53;;;;;;;;;;4887938;28;20192;-43
2022/09/20 00:52:53;;;;;;;6.27;4.73;;;;;;;;;;4885291;29;20182;-43
2022/09/20 00:55:19;;;;;;;7.57;5.10;;;;;;;;;;4883409;29;20173;-43
2022/09/20 00:57:46;;;;;;;8.73;5.30;;;;;;;;;;4887612;29;20188;-43
2022/09/20 01:00:13;;;;;;;8.57;5.07;;;;;;;;;;4890276;29;20260;-43
2022/09/20 01:02:51;;;;;;;7.43;5.13;;;;;;;;;;4888435;29;20208;-43
2022/09/20 01:05:17;;;;;;;6.80;5.03;;;;;;;;;;4882080;29;20275;-43
2022/09/20 01:07:46;;;;;;;8.93;4.90;;;;;;;;;;4889256;28;20558;-42
2022/09/20 01:10:12;;;;;;;6.33;5.03;;;;;;;;;;4888530;28;20192;-41
2022/09/20 01:12:39;;;;;;;7.00;4.90;;;;;;;;;;4888131;29;20658;-43
2022/09/20 01:15:07;;;;;;;11.03;5.37;;;;;;;;;;4886671;29;20603;-43
2022/09/20 01:17:34;;;;;;;9.20;5.20;;;;;;;;;;4885605;29;20187;-43
2022/09/20 01:20:19;;;;;;;7.00;5.23;;;;;;;;;;4887252;29;20933;-43
2022/09/20 01:22:48;;;;;;;7.00;5.40;;;;;;;;;;4888259;29;21284;-43
2022/09/20 01:25:17;;;;;;;9.97;5.60;;;;;;;;;;4882937;29;20188;-43
2022/09/20 01:27:53;;;;;;;9.10;5.47;;;;;;;;;;4884664;29;20355;-43
2022/09/20 01:30:24;;;;;;;7.07;5.17;;;;;;;;;;4884732;29;20559;-42
2022/09/20 01:33:28;;;;;;;8.63;5.23;;;;;;;;;;4886231;29;20184;-43
2022/09/20 01:35:56;;;;;;;6.67;5.10;;;;;;;;;;4895318;28;20290;-43
2022/09/20 01:38:30;;;;;;;6.77;5.07;;;;;;;;;;4898468;28;20830;-43
2022/09/20 01:40:56;;;;;;;8.20;5.73;;;;;;;;;;4888784;28;20518;-43
2022/09/20 01:43:41;;;;;;;10.63;6.50;;;;;;;;;;4887050;29;20177;-43
2022/09/20 01:46:21;;;;;;;10.03;6.47;;;;;;;;;;4883767;29;20184;-43
2022/09/20 01:48:48;;;;;;;7.73;6.13;;;;;;;;;;4886566;29;20610;-43
2022/09/20 01:51:33;;;;;;;9.03;6.47;;;;;;;;;;4884250;29;20207;-43
2022/09/20 01:54:11;;;;;;;9.53;6.80;;;;;;;;;;4882386;29;20725;-43
2022/09/20 01:56:52;;;;;;;13.00;6.80;;;;;;;;;;4885757;29;20168;-43
2022/09/20 01:59:18;;;;;;;10.83;7.40;;;;;;;;;;4883179;29;20258;-43
2022/09/20 02:01:57;;;;;;;13.87;7.93;;;;;;;;;;4885615;29;21033;-43
2022/09/20 02:04:42;;;;;;;10.77;7.90;;;;;;;;;;4885145;28;20658;-43
2022/09/20 02:07:20;;;;;;;10.73;6.80;;;;;;;;;;4880641;29;20611;-42
2022/09/20 02:09:55;;;;;;;9.17;7.30;;;;;;;;;;4880247;29;20184;-43
2022/09/20 02:12:30;;;;;;;12.13;7.90;;;;;;;;;;4884206;29;20183;-43
2022/09/20 02:15:03;;;;;;;13.43;8.30;;;;;;;;;;4886187;29;20206;-44
2022/09/20 02:17:40;;;;;;;10.83;8.00;;;;;;;;;;4883677;29;20204;-44
2022/09/20 02:20:09;;;;;;;11.87;7.80;;;;;;;;;;4883750;29;20199;-44
2022/09/20 02:22:35;;;;;;;11.20;8.30;;;;;;;;;;4883582;29;20684;-43
2022/09/20 02:25:01;;;;;;;8.33;6.80;;;;;;;;;;4884065;29;20195;-43
2022/09/20 02:27:27;;;;;;;11.67;7.97;;;;;;;;;;4888324;29;20176;-43
2022/09/20 02:30:12;;;;;;;11.53;7.00;;;;;;;;;;4883247;29;20187;-41
2022/09/20 02:32:53;;;;;;;8.87;6.67;;;;;;;;;;4880765;29;20199;-42
2022/09/20 02:35:25;;;;;;;10.47;6.80;;;;;;;;;;4881531;29;20266;-42
2022/09/20 02:37:51;;;;;;;8.67;6.03;;;;;;;;;;4888471;29;20622;-42
2022/09/20 02:40:20;;;;;;;8.03;6.00;;;;;;;;;;4886215;29;20593;-45
2022/09/20 02:43:05;;;;;;;8.53;5.73;;;;;;;;;;4884479;29;20625;-45
2022/09/20 02:45:31;;;;;;;10.20;5.43;;;;;;;;;;4883539;29;20824;-45
2022/09/20 02:48:00;;;;;;;9.03;5.00;;;;;;;;;;4885044;29;20743;-45
2022/09/20 02:50:26;;;;;;;7.17;5.00;;;;;;;;;;4888509;29;20995;-45
2022/09/20 02:53:14;;;;;;;8.23;4.90;;;;;;;;;;4883251;29;20187;-45
2022/09/20 02:55:46;;;;;;;6.83;5.27;;;;;;;;;;4884306;29;20531;-42
2022/09/20 02:58:18;;;;;;;8.20;5.80;;;;;;;;;;4888951;29;20496;-43
2022/09/20 03:00:52;;;;;;;8.00;5.73;;;;;;;;;;4886077;29;20757;-43
2022/09/20 03:03:30;;;;;;;9.20;6.07;;;;;;;;;;4880716;29;21144;-43
2022/09/20 03:05:56;;;;;;;11.27;6.30;;;;;;;;;;4884762;29;20207;-43
2022/09/20 03:08:28;;;;;;;7.27;5.67;;;;;;;;;;4884929;28;20176;-43
2022/09/20 03:11:10;;;;;;;9.17;6.10;;;;;;;;;;4886113;28;20721;-43
2022/09/20 03:13:48;;;;;;;9.47;5.80;;;;;;;;;;4895445;28;21097;-43
2022/09/20 03:16:33;;;;;;;8.80;6.40;;;;;;;;;;4884446;28;20882;-43
2022/09/20 03:19:18;;;;;;;8.77;6.00;;;;;;;;;;4887767;29;20595;-43
2022/09/20 03:21:56;;;;;;;7.90;5.57;;;;;;;;;;4888114;28;20467;-42
2022/09/20 03:24:28;;;;;;;7.43;5.77;;;;;;;;;;4886238;28;20199;-43
2022/09/20 03:27:17;;;;;;;7.07;5.77;;;;;;;;;;4886072;29;20199;-43
2022/09/20 03:30:02;;;;;;;8.93;6.17;;;;;;;;;;4892809;29;20478;-43
2022/09/20 03:32:34;;;;;;;7.33;6.23;;;;;;;;;;4888146;29;21094;-42
2022/09/20 03:35:09;;;;;;;8.80;6.23;;;;;;;;;;4886212;29;20793;-43
2022/09/20 03:37:41;;;;;;;7.87;6.37;;;;;;;;;;4885544;29;20217;-43
2022/09/20 03:40:27;;;;;;;9.57;7.17;;;;;;;;;;4886965;29;20710;-43
2022/09/20 03:42:53;;;;;;;8.20;6.63;;;;;;;;;;4890062;29;20187;-44
2022/09/20 03:45:43;;;;;;;10.17;7.20;;;;;;;;;;4889801;29;20181;-44
2022/09/20 03:48:38;;;;;;;9.70;6.80;;;;;;;;;;4885767;29;20223;-43
2022/09/20 03:51:22;;;;;;;12.27;7.17;;;;;;;;;;4895099;28;20392;-44
2022/09/20 03:54:07;;;;;;;10.63;7.30;;;;;;;;;;4888476;28;20446;-44
2022/09/20 03:56:33;;;;;;;14.10;9.37;;;;;;;;;;4887239;29;21209;-44
2022/09/20 03:59:18;;;;;;;17.00;9.97;;;;;;;;;;4888553;29;20177;-44
2022/09/20 04:02:04;;;;;;;15.13;10.40;;;;;;;;;;4890805;29;20195;-44
2022/09/20 04:04:39;;;;;;;17.40;10.70;;;;;;;;;;4918524;28;20206;-44
2022/09/20 04:07:05;;;;;;;18.27;11.03;;;;;;;;;;4888611;29;20194;-44
2022/09/20 04:09:40;;;;;;;16.40;11.73;;;;;;;;;;4884460;29;21272;-43
2022/09/20 04:12:09;;;;;;;13.43;10.70;;;;;;;;;;4886774;29;20993;-44
2022/09/20 04:14:41;;;;;;;14.87;10.83;;;;;;;;;;4890154;29;20212;-44
2022/09/20 04:17:20;;;;;;;15.43;11.40;;;;;;;;;;4888968;29;20200;-44
2022/09/20 04:19:49;;;;;;;13.43;10.73;;;;;;;;;;4887408;29;20212;-44
2022/09/20 04:22:17;;;;;;;17.77;11.33;;;;;;;;;;4886492;29;20459;-44
2022/09/20 04:24:53;;;;;;;18.60;11.03;;;;;;;;;;4886682;29;20622;-44
2022/09/20 04:27:22;;;;;;;13.63;10.90;;;;;;;;;;4887024;29;20401;-44
2022/09/20 04:30:06;;;;;;;13.90;10.87;;;;;;;;;;4886596;28;20187;-44
2022/09/20 04:32:40;;;;;;;14.07;11.60;;;;;;;;;;4885976;29;20275;-44
2022/09/20 04:38:12;;;;;;;17.97;12.03;;;;;;;;;;4887055;29;20230;-43
2022/09/20 04:40:38;;;;;;;16.50;11.40;;;;;;;;;;4885769;29;20345;-44
2022/09/20 04:43:16;;;;;;;17.47;13.30;;;;;;;;;;4887477;29;20268;-44
2022/09/20 04:45:50;;;;;;;21.00;12.60;;;;;;;;;;4879864;29;20172;-44
2022/09/20 04:48:34;;;;;;;16.47;12.30;;;;;;;;;;4882500;29;20176;-44
2022/09/20 04:51:19;;;;;;;18.23;12.60;;;;;;;;;;4883386;29;20183;-44
2022/09/20 04:54:03;;;;;;;17.07;12.17;;;;;;;;;;4884241;29;20590;-43
2022/09/20 04:57:03;;;;;;;20.60;13.20;;;;;;;;;;4882279;29;20243;-44
2022/09/20 04:59:29;;;;;;;24.43;14.97;;;;;;;;;;4902143;28;20192;-44
2022/09/20 05:01:55;;;;;;;21.30;13.27;;;;;;;;;;4890708;28;20387;-44
2022/09/20 05:04:21;;;;;;;20.60;13.80;;;;;;;;;;4887673;29;20276;-44
2022/09/20 05:07:07;;;;;;;19.63;13.20;;;;;;;;;;4888103;29;20180;-44
2022/09/20 05:09:51;;;;;;;18.53;12.23;;;;;;;;;;4886192;28;20615;-44
2022/09/20 05:12:20;;;;;;;19.63;13.10;;;;;;;;;;4885935;29;20980;-44
2022/09/20 05:15:04;;;;;;;13.83;10.03;;;;;;;;;;4885467;29;20374;-44
2022/09/20 05:17:31;;;;;;;12.73;9.43;;;;;;;;;;4886008;29;20872;-44
2022/09/20 05:20:03;;;;;;;15.17;10.10;;;;;;;;;;4887956;29;20683;-44
2022/09/20 05:22:47;;;;;;;14.50;9.67;;;;;;;;;;4883493;29;20282;-44
2022/09/20 05:25:29;;;;;;;13.67;10.13;;;;;;;;;;4885608;29;20240;-44
2022/09/20 05:27:55;;;;;;;13.73;9.07;;;;;;;;;;4889670;29;20641;-43
2022/09/20 05:30:21;;;;;;;12.17;8.50;;;;;;;;;;4886934;28;20699;-44
2022/09/20 05:32:50;;;;;;;11.80;8.87;;;;;;;;;;4883393;29;20506;-44
2022/09/20 05:35:20;;;;;;;13.00;9.10;;;;;;;;;;4885490;29;20195;-44
2022/09/20 05:37:46;;;;;;;10.97;8.20;;;;;;;;;;4888118;29;20765;-43
2022/09/20 05:40:24;;;;;;;10.30;8.03;;;;;;;;;;4888050;29;20208;-43
2022/09/20 05:43:25;;;;;;;11.07;7.90;;;;;;;;;;4883063;29;20829;-44
2022/09/20 05:46:10;;;;;;;11.60;7.17;;;;;;;;;;4890552;28;20348;-43
2022/09/20 05:48:56;;;;;;;15.63;7.43;;;;;;;;;;4885893;29;20304;-44
2022/09/20 05:51:41;;;;;;;12.23;7.10;;;;;;;;;;4889801;29;20511;-44
2022/09/20 05:54:26;;;;;;;11.70;7.13;;;;;;;;;;4888725;28;20195;-44
2022/09/20 05:57:03;;;;;;;11.80;6.70;;;;;;;;;;4886020;29;20183;-44
2022/09/20 05:59:52;;;;;;;11.40;6.23;;;;;;;;;;4890631;29;20227;-43
2022/09/20 06:02:44;;;;;;;11.10;6.13;;;;;;;;;;4893828;28;20456;-44
2022/09/20 06:05:13;;;;;;;12.43;6.40;;;;;;;;;;4896569;28;20724;-44
2022/09/20 06:07:49;;;;;;;14.63;6.80;;;;;;;;;;4891085;29;20493;-44
2022/09/20 06:10:29;;;;;;;13.77;5.93;;;;;;;;;;4892458;29;20666;-42
2022/09/20 06:12:55;;;;;;;12.03;5.40;;;;;;;;;;4891855;29;20275;-44
2022/09/20 06:15:31;;;;;;;15.20;6.30;;;;;;;;;;4892307;28;20662;-43
2022/09/20 06:18:08;;;;;;;9.07;5.23;;;;;;;;;;4896015;29;20924;-44
2022/09/20 06:20:42;;;;;;;12.63;5.63;;;;;;;;;;4888657;29;20214;-43
2022/09/20 06:23:09;;;;;;;9.33;4.70;;;;;;;;;;4892106;29;20171;-44
2022/09/20 06:25:42;;;;;;;12.10;4.73;;;;;;;;;;4895661;29;20274;-43
2022/09/20 06:28:13;;;;;;;11.90;4.27;;;;;;;;;;4888990;29;20176;-44
2022/09/20 06:30:42;;;;;;;13.40;4.43;;;;;;;;;;4885877;29;20175;-44
2022/09/20 06:33:11;;;;;;;10.87;4.00;;;;;;;;;;4884714;29;20232;-44
2022/09/20 06:41:25;;;;;;;10.70;4.07;;;;;;;;;;4891887;29;20184;-44
2022/09/20 06:41:36;;;;;;;8.33;3.50;;;;;;;;;;4892489;29;20672;-44
2022/09/20 06:44:03;;;;;;;8.73;4.10;;;;;;;;;;4890408;29;20367;-44
2022/09/20 06:46:30;;;;;;;11.97;3.87;;;;;;;;;;4891495;29;20179;-44
2022/09/20 06:48:57;;;;;;;11.23;3.77;;;;;;;;;;4893975;29;20191;-44
2022/09/20 06:51:25;;;;;;;10.33;4.00;;;;;;;;;;4893523;29;20183;-44
2022/09/20 06:53:52;;;;;;;10.57;3.63;;;;;;;;;;4893710;29;20626;-44
2022/09/20 06:56:20;;;;;;;15.17;3.80;;;;;;;;;;4891446;29;20227;-44
2022/09/20 06:58:46;;;;;;;8.17;3.43;;;;;;;;;;4896821;29;20172;-44
2022/09/20 07:01:12;;;;;;;8.17;4.03;;;;;;;;;;4894416;29;20200;-44
2022/09/20 07:03:39;;;;;;;13.70;4.47;;;;;;;;;;4891935;29;22148;-43
2022/09/20 07:06:05;;;;;;;12.73;4.50;;;;;;;;;;4895846;29;20656;-44
2022/09/20 07:08:31;;;;;;;11.20;3.93;;;;;;;;;;4894318;29;20176;-44
2022/09/20 07:11:03;;;;;;;14.73;4.57;;;;;;;;;;4897402;29;20544;-44
2022/09/20 07:13:29;;;;;;;9.63;3.77;;;;;;;;;;4893904;29;20464;-43
2022/09/20 07:16:05;;;;;;;11.30;3.83;;;;;;;;;;4888103;29;20446;-44
2022/09/20 07:18:32;;;;;;;15.50;3.67;;;;;;;;;;4895713;29;20171;-44
2022/09/20 07:20:58;;;;;;;11.73;3.47;;;;;;;;;;4895269;29;20203;-44
2022/09/20 07:23:25;;;;;;;8.87;3.33;;;;;;;;;;4895480;29;20445;-44
2022/09/20 07:25:52;;;;;;;13.17;3.27;;;;;;;;;;4891894;29;20428;-44
2022/09/20 07:28:21;;;;;;;9.60;2.90;;;;;;;;;;4895299;29;20268;-44
2022/09/20 07:30:48;;;;;;;8.17;3.30;;;;;;;;;;4898491;29;20188;-43
2022/09/20 07:33:19;;;;;;;9.53;3.20;;;;;;;;;;4895562;29;20191;-44
2022/09/20 07:35:45;;;;;;;13.37;3.33;;;;;;;;;;4896171;28;20578;-44
2022/09/20 07:38:12;;;;;;;8.70;3.20;;;;;;;;;;4892144;29;20259;-44
2022/09/20 07:40:38;;;;;;;12.20;3.43;;;;;;;;;;4898118;29;20464;-44
2022/09/20 07:43:05;;;;;;;9.23;2.90;;;;;;;;;;4897792;29;20282;-44
2022/09/20 07:45:32;;;;;;;8.27;2.60;;;;;;;;;;4895680;29;20172;-44
2022/09/20 07:47:58;;;;;;;10.30;2.53;;;;;;;;;;4895872;29;20404;-44
2022/09/20 07:50:24;;;;;;;10.80;2.90;;;;;;;;;;4898763;29;20583;-44
2022/09/20 07:52:50;;;;;;;10.20;3.03;;;;;;;;;;4897370;29;20650;-44
2022/09/20 07:55:17;;;;;;;11.97;2.63;;;;;;;;;;4896815;29;20191;-44
2022/09/20 07:57:44;;;;;;;8.27;2.70;;;;;;;;;;4892727;29;20486;-44
2022/09/20 08:00:11;;;;;;;9.77;2.73;;;;;;;;;;4893834;29;21096;-44
2022/09/20 08:02:37;;;;;;;10.93;2.90;;;;;;;;;;4891875;29;20417;-44
2022/09/20 08:05:03;;;;;;;6.30;2.70;;;;;;;;;;4911956;28;20650;-44
2022/09/20 08:07:29;;;;;;;10.60;2.80;;;;;;;;;;4900897;29;20365;-44
2022/09/20 08:09:55;;;;;;;9.33;3.00;;;;;;;;;;4896984;29;20184;-44
2022/09/20 08:12:22;;;;;;;8.43;2.63;;;;;;;;;;4897661;29;20180;-44
2022/09/20 08:14:48;;;;;;;11.97;2.90;;;;;;;;;;4896561;29;20598;-43
2022/09/20 08:17:14;;;;;;;8.70;2.80;;;;;;;;;;4896795;29;20463;-44
2022/09/20 08:19:41;;;;;;;9.73;2.80;;;;;;;;;;4902974;29;20187;-44
2022/09/20 08:22:09;;;;;;;8.13;2.87;;;;;;;;;;4900812;29;20578;-44
2022/09/20 08:24:35;;;;;;;9.40;2.80;;;;;;;;;;4898303;29;20474;-43
2022/09/20 08:27:02;;;;;;;4.57;2.40;;;;;;;;;;4898786;29;20748;-44
2022/09/20 08:29:29;;;;;;;8.50;3.00;;;;;;;;;;4898407;29;20183;-44
2022/09/20 08:31:57;;;;;;;12.10;2.43;;;;;;;;;;4897346;29;20287;-44
2022/09/20 08:34:23;;;;;;;11.40;2.60;;;;;;;;;;4902723;29;20728;-43
2022/09/20 08:36:51;;;;;;;8.67;2.33;;;;;;;;;;4902850;29;20679;-44
2022/09/20 08:39:18;;;;;;;7.07;2.40;;;;;;;;;;4898345;29;20184;-44
2022/09/20 08:41:55;;;;;;;7.70;2.67;;;;;;;;;;4894913;29;20203;-44
2022/09/20 08:44:32;;;;;;;8.47;2.50;;;;;;;;;;4896401;28;20417;-44
2022/09/20 08:47:00;;;;;;;9.20;2.57;;;;;;;;;;4899819;29;21133;-44
2022/09/20 08:49:27;;;;;;;8.53;2.80;;;;;;;;;;4902590;29;20484;-44
2022/09/20 08:51:56;;;;;;;8.63;2.40;;;;;;;;;;4900486;29;20176;-44
2022/09/20 08:54:23;;;;;;;8.53;2.70;;;;;;;;;;4896549;29;20180;-44
2022/09/20 08:56:49;;;;;;;10.30;2.90;;;;;;;;;;4898018;29;20181;-44
2022/09/20 08:59:18;;;;;;;6.43;2.10;;;;;;;;;;4900775;29;20551;-44
2022/09/20 09:01:45;;;;;;;5.97;2.03;;;;;;;;;;4897365;29;20717;-44
2022/09/20 09:04:20;;;;;;;7.93;2.27;;;;;;;;;;4900196;29;20179;-44
2022/09/20 09:06:46;;;;;;;7.43;2.30;;;;;;;;;;4897963;28;20187;-44
2022/09/20 09:09:26;;;;;;;9.50;2.53;;;;;;;;;;4895000;29;20587;-44
2022/09/20 09:11:53;;;;;;;10.03;2.17;;;;;;;;;;4901509;29;20176;-44
2022/09/20 09:14:48;;;;;;;7.63;2.50;;;;;;;;;;4898551;29;20184;-43
2022/09/20 09:17:19;;;;;;;5.63;2.47;;;;;;;;;;4895939;29;20220;-44
2022/09/20 09:19:48;;;;;;;6.77;2.23;;;;;;;;;;4895523;28;20184;-44
2022/09/20 09:22:19;;;;;;;8.60;2.37;;;;;;;;;;4900466;29;20164;-44
2022/09/20 09:24:45;;;;;;;7.77;2.47;;;;;;;;;;4900309;29;20191;-44
2022/09/20 09:27:15;;;;;;;7.20;2.47;;;;;;;;;;4899407;29;20184;-44
2022/09/20 09:29:53;;;;;;;7.97;2.43;;;;;;;;;;4897440;29;20640;-44
2022/09/20 09:32:23;;;;;;;10.23;2.30;;;;;;;;;;4894759;29;20176;-44
2022/09/20 09:34:49;;;;;;;5.80;2.47;;;;;;;;;;4898171;29;20287;-44
2022/09/20 09:37:42;;;;;;;6.47;2.33;;;;;;;;;;4897118;29;20709;-44
2022/09/20 09:40:15;;;;;;;5.43;2.10;;;;;;;;;;4902173;28;20215;-44
2022/09/20 09:43:08;;;;;;;7.47;2.23;;;;;;;;;;4897503;28;20187;-44
2022/09/20 09:45:37;;;;;;;10.83;2.60;;;;;;;;;;4897982;28;20192;-44
2022/09/20 09:48:17;;;;;;;10.70;2.40;;;;;;;;;;4899538;29;20283;-44
2022/09/20 09:50:44;;;;;;;9.23;2.40;;;;;;;;;;4902129;29;20906;-44
2022/09/20 09:53:11;;;;;;;10.73;2.73;;;;;;;;;;4897102;28;20180;-44
2022/09/20 09:55:44;;;;;;;9.80;2.40;;;;;;;;;;4896854;29;20763;-44
2022/09/20 09:58:19;;;;;;;9.10;2.20;;;;;;;;;;4897248;29;20179;-44
2022/09/20 10:00:46;;;;;;;6.80;2.10;;;;;;;;;;4897158;29;20482;-44
2022/09/20 10:03:34;;;;;;;7.63;2.50;;;;;;;;;;4899949;29;20173;-44
2022/09/20 10:06:09;;;;;;;6.13;2.37;;;;;;;;;;4896412;29;20796;-44
2022/09/20 10:08:58;;;;;;;8.60;2.33;;;;;;;;;;4896634;29;20176;-44
2022/09/20 10:11:24;;;;;;;7.30;2.47;;;;;;;;;;4896210;28;20294;-44
2022/09/20 10:14:09;;;;;;;4.83;2.20;;;;;;;;;;4897615;29;20397;-44
2022/09/20 10:16:42;;;;;;;5.93;2.50;;;;;;;;;;4899086;29;20176;-44
2022/09/20 10:19:17;;;;;;;13.53;2.77;;;;;;;;;;4897537;28;20807;-44
2022/09/20 10:22:07;;;;;;;9.93;2.57;;;;;;;;;;4894715;29;20242;-44
2022/09/20 10:24:48;;;;;;;9.83;2.10;;;;;;;;;;4907331;28;20204;-43
2022/09/20 10:27:18;;;;;;;9.40;2.97;;;;;;;;;;4898885;29;20183;-44
2022/09/20 10:29:51;;;;;;;9.67;2.60;;;;;;;;;;4898334;29;20179;-44
2022/09/20 10:32:17;;;;;;;7.93;2.40;;;;;;;;;;4898438;28;20631;-44
2022/09/20 10:34:54;;;;;;;5.53;2.03;;;;;;;;;;4898718;29;20602;-43
2022/09/20 10:37:23;;;;;;;8.60;2.70;;;;;;;;;;4914392;28;20176;-44
2022/09/20 10:39:56;;;;;;;10.37;2.60;;;;;;;;;;4899156;29;20235;-44
2022/09/20 10:45:25;;;;;;;7.10;2.70;;;;;;;;;;4897696;29;20199;-44
2022/09/20 10:48:00;;;;;;;4.30;2.03;;;;;;;;;;4898538;29;20259;-43
2022/09/20 10:50:35;;;;;;;5.93;2.40;;;;;;;;;;4899143;29;20191;-44
2022/09/20 10:53:04;;;;;;;8.47;2.60;;;;;;;;;;4898046;29;20378;-43
2022/09/20 10:55:30;;;;;;;8.23;2.37;;;;;;;;;;4898047;29;20216;-44
2022/09/20 10:58:15;;;;;;;7.67;2.63;;;;;;;;;;4895304;29;20328;-44
2022/09/20 11:00:51;;;;;;;9.67;2.60;;;;;;;;;;4894648;29;20304;-44
2022/09/20 11:03:17;;;;;;;10.27;2.13;;;;;;;;;;4899640;29;20594;-44
2022/09/20 11:05:43;;;;;;;10.33;2.87;;;;;;;;;;4900265;29;20175;-44
2022/09/20 11:08:15;;;;;;;6.17;2.30;;;;;;;;;;4928585;28;20299;-44
2022/09/20 11:10:47;;;;;;;6.43;2.30;;;;;;;;;;4898783;29;20459;-44
2022/09/20 11:13:18;;;;;;;11.53;2.73;;;;;;;;;;4895054;29;20628;-44
2022/09/20 11:16:06;;;;;;;9.90;3.00;;;;;;;;;;4895085;29;20188;-43
2022/09/20 11:18:39;;;;;;;7.53;2.80;;;;;;;;;;4899132;29;20243;-44
2022/09/20 11:21:12;;;;;;;8.03;3.03;;;;;;;;;;4897594;29;20312;-44
2022/09/20 11:23:51;;;;;;;4.33;1.97;;;;;;;;;;4898572;29;20180;-44
2022/09/20 11:26:38;;;;;;;7.80;2.43;;;;;;;;;;4896477;29;20700;-44
2022/09/20 11:29:23;;;;;;;5.53;1.80;;;;;;;;;;4898480;29;20609;-43
2022/09/20 11:31:50;;;;;;;6.90;1.90;;;;;;;;;;4899027;29;21036;-44
2022/09/20 11:34:29;;;;;;;4.27;2.00;;;;;;;;;;4897977;29;20180;-44
2022/09/20 11:36:57;;;;;;;8.93;2.63;;;;;;;;;;4893961;29;20179;-44
2022/09/20 11:39:49;;;;;;;7.63;1.90;;;;;;;;;;4892992;29;20200;-44
2022/09/20 11:42:25;;;;;;;6.03;2.00;;;;;;;;;;4900549;28;20200;-44
2022/09/20 11:44:51;;;;;;;5.27;1.90;;;;;;;;;;4895809;29;20415;-44
2022/09/20 11:47:23;;;;;;;7.57;1.90;;;;;;;;;;4901435;28;20192;-44
2022/09/20 11:49:58;;;;;;;4.43;1.63;;;;;;;;;;4902210;29;20172;-44
2022/09/20 11:52:25;;;;;;;6.20;1.80;;;;;;;;;;4901650;29;20422;-44
2022/09/20 11:55:03;;;;;;;6.50;1.80;;;;;;;;;;4898090;29;20295;-44
2022/09/20 11:57:29;;;;;;;7.00;1.87;;;;;;;;;;4896055;29;20845;-44
2022/09/20 11:59:56;;;;;;;4.83;1.70;;;;;;;;;;4897065;29;20699;-44
2022/09/20 12:02:33;;;;;;;3.73;1.57;;;;;;;;;;4902887;29;20184;-44
2022/09/20 12:05:00;;;;;;;5.07;1.60;;;;;;;;;;4896898;29;20287;-44
2022/09/20 12:07:38;;;;;;;7.33;1.90;;;;;;;;;;4899729;29;20385;-44
2022/09/20 12:10:07;;;;;;;4.87;2.00;;;;;;;;;;4899771;29;20470;-43
2022/09/20 12:12:40;;;;;;;5.73;2.00;;;;;;;;;;4902716;29;20203;-43
2022/09/20 12:15:25;;;;;;;7.17;1.93;;;;;;;;;;4901485;29;20668;-42
2022/09/20 12:17:51;;;;;;;12.50;2.20;;;;;;;;;;4902653;29;20196;-43
2022/09/20 12:20:41;;;;;;;5.20;1.90;;;;;;;;;;4899724;29;20219;-43
2022/09/20 12:23:26;;;;;;;6.40;2.27;;;;;;;;;;4897229;29;20196;-44
2022/09/20 12:25:59;;;;;;;9.20;2.10;;;;;;;;;;4896494;29;20774;-43
2022/09/20 12:28:36;;;;;;;7.30;2.13;;;;;;;;;;4901343;29;20248;-43
2022/09/20 12:31:21;;;;;;;8.30;2.17;;;;;;;;;;4903006;29;20387;-43
2022/09/20 12:33:56;;;;;;;6.53;1.57;;;;;;;;;;4900491;29;20526;-43
2022/09/20 12:36:23;;;;;;;3.37;1.77;;;;;;;;;;4896908;29;20436;-43
2022/09/20 12:38:53;;;;;;;5.50;1.80;;;;;;;;;;4897706;29;21196;-43
2022/09/20 12:41:19;;;;;;;7.10;1.67;;;;;;;;;;4903701;29;20207;-43
2022/09/20 12:43:51;;;;;;;4.30;1.80;;;;;;;;;;4899919;29;20298;-43
2022/09/20 12:46:47;;;;;;;5.07;1.50;;;;;;;;;;4895125;29;20554;-44
2022/09/20 12:52:49;;;;;;;6.43;1.77;;;;;;;;;;4904862;28;20205;-43
2022/09/20 12:54:51;;;;;;;6.70;1.67;;;;;;;;;;4901893;29;20293;-43
2022/09/20 12:57:18;;;;;;;5.77;2.00;;;;;;;;;;4897621;29;20188;-43
2022/09/20 12:59:54;;;;;;;7.03;2.30;;;;;;;;;;4895923;29;20188;-43
2022/09/20 13:02:39;;;;;;;8.83;2.23;;;;;;;;;;4895402;28;20835;-44
2022/09/20 13:05:25;;;;;;;6.70;1.80;;;;;;;;;;4899333;29;21620;-43
2022/09/20 13:07:56;;;;;;;5.20;2.07;;;;;;;;;;4898439;29;20268;-43
2022/09/20 13:10:36;;;;;;;8.20;1.90;;;;;;;;;;4895531;29;20406;-43
2022/09/20 13:13:12;;;;;;;7.77;1.60;;;;;;;;;;4896684;29;20271;-44
2022/09/20 13:15:39;;;;;;;6.63;2.07;;;;;;;;;;4893173;29;20183;-43
2022/09/20 13:18:06;;;;;;;6.30;1.70;;;;;;;;;;4897826;29;20478;-44
2022/09/20 13:20:33;;;;;;;3.93;1.53;;;;;;;;;;4897181;29;20199;-44
2022/09/20 13:23:01;;;;;;;4.77;1.47;;;;;;;;;;4891721;29;20544;-43
2022/09/20 13:25:28;;;;;;;5.47;1.57;;;;;;;;;;4893014;29;20590;-42
2022/09/20 13:28:07;;;;;;;4.57;1.87;;;;;;;;;;4894627;29;20195;-44
2022/09/20 13:30:34;;;;;;;5.30;1.60;;;;;;;;;;4891387;29;20378;-44
2022/09/20 13:33:16;;;;;;;4.37;1.63;;;;;;;;;;4895062;29;20184;-43
2022/09/20 13:35:47;;;;;;;6.77;1.63;;;;;;;;;;4896335;29;20179;-44
2022/09/20 13:38:14;;;;;;;4.40;1.70;;;;;;;;;;4898211;29;20833;-44
2022/09/20 13:40:42;;;;;;;6.00;1.40;;;;;;;;;;4896458;29;20818;-43
2022/09/20 13:43:27;;;;;;;5.40;1.60;;;;;;;;;;4896996;29;20458;-44
2022/09/20 13:45:55;;;;;;;4.50;1.60;;;;;;;;;;4895569;29;20677;-44
2022/09/20 13:48:24;;;;;;;5.97;1.60;;;;;;;;;;4900559;29;20930;-44
2022/09/20 13:50:50;;;;;;;4.83;1.50;;;;;;;;;;4898114;29;20807;-44
2022/09/20 13:53:17;;;;;;;2.70;1.27;;;;;;;;;;4895528;29;20247;-43
2022/09/20 13:55:44;;;;;;;5.07;1.43;;;;;;;;;;4895206;29;20279;-44
2022/09/20 13:58:25;;;;;;;5.00;1.63;;;;;;;;;;4899162;29;20274;-44
2022/09/20 14:00:53;;;;;;;5.10;1.43;;;;;;;;;;4896138;29;20423;-44
2022/09/20 14:03:20;;;;;;;5.50;1.37;;;;;;;;;;4894150;29;20462;-44
2022/09/20 14:05:51;;;;;;;3.33;1.20;;;;;;;;;;4894548;29;20278;-44
2022/09/20 14:08:22;;;;;;;2.80;1.07;;;;;;;;;;4896067;29;20251;-44
2022/09/20 14:10:49;;;;;;;3.97;1.40;;;;;;;;;;4896286;29;20176;-44
2022/09/20 14:13:16;;;;;;;2.43;1.17;;;;;;;;;;4896101;29;20180;-44
2022/09/20 14:15:46;;;;;;;3.17;1.23;;;;;;;;;;4892477;29;20192;-43
2022/09/20 14:18:14;;;;;;;3.57;1.27;;;;;;;;;;4892595;29;20172;-44
2022/09/20 14:20:42;;;;;;;2.40;1.10;;;;;;;;;;4896955;29;20631;-44
2022/09/20 14:23:20;;;;;;;4.70;1.20;;;;;;;;;;4897490;29;20191;-43
2022/09/20 14:26:05;;;;;;;4.47;1.20;;;;;;;;;;4896968;29;20411;-44
2022/09/20 14:28:31;;;;;;;3.67;1.50;;;;;;;;;;4895494;29;20191;-44
2022/09/20 14:31:06;;;;;;;4.93;1.30;;;;;;;;;;4893220;29;20749;-44
2022/09/20 14:33:32;;;;;;;3.83;1.10;;;;;;;;;;4891496;29;20187;-44
2022/09/20 14:35:58;;;;;;;3.77;1.20;;;;;;;;;;4895958;29;20194;-44
2022/09/20 14:38:25;;;;;;;1.90;0.80;;;;;;;;;;4893223;29;20187;-43
2022/09/20 14:40:52;;;;;;;4.00;1.30;;;;;;;;;;4892338;29;20207;-44
2022/09/20 14:43:25;;;;;;;3.20;1.07;;;;;;;;;;4884149;29;20319;-43
2022/09/20 14:46:00;;;;;;;2.27;1.00;;;;;;;;;;4888378;29;20295;-43
2022/09/20 14:48:26;;;;;;;2.27;1.00;;;;;;;;;;4891242;29;20405;-44
2022/09/20 14:51:11;;;;;;;2.70;1.10;;;;;;;;;;4885384;29;20184;-44
2022/09/20 14:53:37;;;;;;;5.73;1.07;;;;;;;;;;4891072;29;20716;-44
2022/09/20 14:56:03;;;;;;;3.03;1.20;;;;;;;;;;4890178;29;20459;-43
2022/09/20 14:58:30;;;;;;;2.03;0.93;;;;;;;;;;4893586;29;20180;-44
2022/09/20 15:01:04;;;;;;;2.30;0.97;;;;;;;;;;4894879;29;20612;-44
2022/09/20 15:03:32;;;;;;;1.47;0.80;;;;;;;;;;4897939;29;20651;-44
2022/09/20 15:05:59;;;;;;;2.37;1.03;;;;;;;;;;4904939;28;20187;-44
2022/09/20 15:08:25;;;;;;;5.53;1.23;;;;;;;;;;4895415;29;20222;-43
2022/09/20 15:10:51;;;;;;;1.93;0.90;;;;;;;;;;4895306;29;20206;-44
2022/09/20 15:13:18;;;;;;;8.43;1.17;;;;;;;;;;4896178;29;20629;-42
2022/09/20 15:15:46;;;;;;;4.93;1.07;;;;;;;;;;4896597;29;20181;-43
2022/09/20 15:18:22;;;;;;;4.07;1.03;;;;;;;;;;4899235;29;20299;-44
2022/09/20 15:20:49;;;;;;;1.70;1.10;;;;;;;;;;4899513;29;21107;-43
2022/09/20 15:23:15;;;;;;;4.33;1.20;;;;;;;;;;4903833;28;20180;-43